sensor_id;sensor_type;location;lat;lon;timestamp;P1;durP1;ratioP1;P2;durP2;ratioP2
58928;SDS011;44713;53.378;10.022;2023-06-22T00:01:00;3.72;;;3.20;;
58928;SDS011;44713;53.378;10.022;2023-06-22T00:03:25;4.47;;;3.60;;
58928;SDS011;44713;53.378;10.022;2023-06-22T00:05:51;4.35;;;3.45;;
58928;SDS011;44713;53.378;10.022;2023-06-22T00:08:17;3.80;;;3.50;;
58928;SDS011;44713;53.378;10.022;2023-06-22T00:10:43;4.00;;;3.60;;
58928;SDS011;44713;53.378;10.022;2023-06-22T00:13:09;3.15;;;2.85;;
58928;SDS011;44713;53.378;10.022;2023-06-22T00:15:35;4.07;;;3.03;;
58928;SDS011;44713;53.378;10.022;2023-06-22T00:18:02;4.93;;;3.88;;
58928;SDS011;44713;53.378;10.022;2023-06-22T00:20:28;4.70;;;3.90;;
58928;SDS011;44713;53.378;10.022;2023-06-22T00:22:54;4.30;;;3.90;;
58928;SDS011;44713;53.378;10.022;2023-06-22T00:25:20;4.30;;;3.35;;
58928;SDS011;44713;53.378;10.022;2023-06-22T00:27:45;4.05;;;3.63;;
58928;SDS011;44713;53.378;10.022;2023-06-22T00:30:11;3.88;;;3.58;;
58928;SDS011;44713;53.378;10.022;2023-06-22T00:32:36;4.20;;;3.80;;
58928;SDS011;44713;53.378;10.022;2023-06-22T00:35:02;4.38;;;3.63;;
58928;SDS011;44713;53.378;10.022;2023-06-22T00:37:28;3.95;;;3.42;;
58928;SDS011;44713;53.378;10.022;2023-06-22T00:39:55;3.67;;;3.38;;
58928;SDS011;44713;53.378;10.022;2023-06-22T00:42:21;4.35;;;3.95;;
58928;SDS011;44713;53.378;10.022;2023-06-22T00:44:46;3.97;;;3.67;;
58928;SDS011;44713;53.378;10.022;2023-06-22T00:47:13;3.80;;;3.40;;
58928;SDS011;44713;53.378;10.022;2023-06-22T00:49:41;4.28;;;2.88;;
58928;SDS011;44713;53.378;10.022;2023-06-22T00:52:06;3.58;;;2.95;;
58928;SDS011;44713;53.378;10.022;2023-06-22T00:54:42;4.82;;;4.05;;
58928;SDS011;44713;53.378;10.022;2023-06-22T00:57:13;3.63;;;3.28;;
58928;SDS011;44713;53.378;10.022;2023-06-22T00:59:41;4.38;;;3.80;;
58928;SDS011;44713;53.378;10.022;2023-06-22T01:02:08;6.30;;;3.63;;
58928;SDS011;44713;53.378;10.022;2023-06-22T01:04:34;3.75;;;2.92;;
58928;SDS011;44713;53.378;10.022;2023-06-22T01:09:59;4.40;;;3.70;;
58928;SDS011;44713;53.378;10.022;2023-06-22T01:15:36;7.50;;;3.65;;
58928;SDS011;44713;53.378;10.022;2023-06-22T01:18:05;5.00;;;3.50;;
58928;SDS011;44713;53.378;10.022;2023-06-22T01:20:35;4.38;;;3.58;;
58928;SDS011;44713;53.378;10.022;2023-06-22T01:26:57;3.58;;;3.15;;
58928;SDS011;44713;53.378;10.022;2023-06-22T01:29:23;4.10;;;3.70;;
58928;SDS011;44713;53.378;10.022;2023-06-22T01:31:50;4.22;;;3.00;;
58928;SDS011;44713;53.378;10.022;2023-06-22T01:34:16;3.78;;;3.22;;
58928;SDS011;44713;53.378;10.022;2023-06-22T01:36:42;4.10;;;3.70;;
58928;SDS011;44713;53.378;10.022;2023-06-22T01:39:08;5.40;;;4.15;;
58928;SDS011;44713;53.378;10.022;2023-06-22T01:41:35;4.78;;;3.97;;
58928;SDS011;44713;53.378;10.022;2023-06-22T01:44:03;4.20;;;3.53;;
58928;SDS011;44713;53.378;10.022;2023-06-22T01:46:31;3.67;;;3.28;;
58928;SDS011;44713;53.378;10.022;2023-06-22T01:48:57;4.30;;;3.90;;
58928;SDS011;44713;53.378;10.022;2023-06-22T01:51:23;4.95;;;3.88;;
58928;SDS011;44713;53.378;10.022;2023-06-22T01:53:49;4.30;;;3.90;;
58928;SDS011;44713;53.378;10.022;2023-06-22T01:56:16;3.60;;;3.30;;
58928;SDS011;44713;53.378;10.022;2023-06-22T01:58:45;4.85;;;3.88;;
58928;SDS011;44713;53.378;10.022;2023-06-22T02:01:15;5.78;;;3.88;;
58928;SDS011;44713;53.378;10.022;2023-06-22T02:03:53;9.35;;;4.40;;
58928;SDS011;44713;53.378;10.022;2023-06-22T02:06:37;4.47;;;4.07;;
58928;SDS011;44713;53.378;10.022;2023-06-22T02:09:09;5.28;;;4.43;;
58928;SDS011;44713;53.378;10.022;2023-06-22T02:11:42;4.20;;;3.80;;
58928;SDS011;44713;53.378;10.022;2023-06-22T02:14:10;4.18;;;3.78;;
58928;SDS011;44713;53.378;10.022;2023-06-22T02:16:38;4.07;;;3.35;;
58928;SDS011;44713;53.378;10.022;2023-06-22T02:19:04;4.40;;;3.47;;
58928;SDS011;44713;53.378;10.022;2023-06-22T02:21:32;4.00;;;3.63;;
58928;SDS011;44713;53.378;10.022;2023-06-22T02:23:59;3.28;;;3.00;;
58928;SDS011;44713;53.378;10.022;2023-06-22T02:26:24;4.38;;;3.28;;
58928;SDS011;44713;53.378;10.022;2023-06-22T02:28:52;3.75;;;3.20;;
58928;SDS011;44713;53.378;10.022;2023-06-22T02:31:18;3.20;;;2.90;;
58928;SDS011;44713;53.378;10.022;2023-06-22T02:33:44;4.78;;;4.07;;
58928;SDS011;44713;53.378;10.022;2023-06-22T02:36:10;5.60;;;4.30;;
58928;SDS011;44713;53.378;10.022;2023-06-22T02:38:38;6.80;;;4.90;;
58928;SDS011;44713;53.378;10.022;2023-06-22T02:41:10;3.60;;;3.30;;
58928;SDS011;44713;53.378;10.022;2023-06-22T02:43:38;4.78;;;4.07;;
58928;SDS011;44713;53.378;10.022;2023-06-22T02:46:03;3.65;;;3.20;;
58928;SDS011;44713;53.378;10.022;2023-06-22T02:48:28;4.63;;;4.10;;
58928;SDS011;44713;53.378;10.022;2023-06-22T02:50:54;4.00;;;3.60;;
58928;SDS011;44713;53.378;10.022;2023-06-22T02:53:19;3.80;;;3.45;;
58928;SDS011;44713;53.378;10.022;2023-06-22T02:55:46;3.47;;;3.17;;
58928;SDS011;44713;53.378;10.022;2023-06-22T02:58:11;3.53;;;3.22;;
58928;SDS011;44713;53.378;10.022;2023-06-22T03:00:37;5.38;;;3.97;;
58928;SDS011;44713;53.378;10.022;2023-06-22T03:03:04;4.13;;;3.60;;
58928;SDS011;44713;53.378;10.022;2023-06-22T03:05:30;4.65;;;3.53;;
58928;SDS011;44713;53.378;10.022;2023-06-22T03:07:57;3.58;;;3.22;;
58928;SDS011;44713;53.378;10.022;2023-06-22T03:10:23;4.55;;;4.15;;
58928;SDS011;44713;53.378;10.022;2023-06-22T03:12:48;3.67;;;3.28;;
58928;SDS011;44713;53.378;10.022;2023-06-22T03:15:14;4.18;;;3.80;;
58928;SDS011;44713;53.378;10.022;2023-06-22T03:17:39;3.60;;;3.30;;
58928;SDS011;44713;53.378;10.022;2023-06-22T03:20:07;5.15;;;4.40;;
58928;SDS011;44713;53.378;10.022;2023-06-22T03:22:43;6.25;;;4.57;;
58928;SDS011;44713;53.378;10.022;2023-06-22T03:25:09;4.43;;;4.03;;
58928;SDS011;44713;53.378;10.022;2023-06-22T03:27:36;5.22;;;4.32;;
58928;SDS011;44713;53.378;10.022;2023-06-22T03:30:02;5.90;;;4.25;;
58928;SDS011;44713;53.378;10.022;2023-06-22T03:32:28;4.57;;;4.13;;
58928;SDS011;44713;53.378;10.022;2023-06-22T03:34:53;5.80;;;4.45;;
58928;SDS011;44713;53.378;10.022;2023-06-22T03:37:19;4.45;;;4.05;;
58928;SDS011;44713;53.378;10.022;2023-06-22T03:39:44;5.35;;;3.70;;
58928;SDS011;44713;53.378;10.022;2023-06-22T03:42:10;3.85;;;3.47;;
58928;SDS011;44713;53.378;10.022;2023-06-22T03:44:35;4.65;;;4.15;;
58928;SDS011;44713;53.378;10.022;2023-06-22T03:47:02;6.72;;;3.70;;
58928;SDS011;44713;53.378;10.022;2023-06-22T03:49:28;5.47;;;4.22;;
58928;SDS011;44713;53.378;10.022;2023-06-22T03:51:54;7.00;;;4.72;;
58928;SDS011;44713;53.378;10.022;2023-06-22T03:54:19;5.55;;;4.65;;
58928;SDS011;44713;53.378;10.022;2023-06-22T03:56:44;4.75;;;4.35;;
58928;SDS011;44713;53.378;10.022;2023-06-22T03:59:10;4.45;;;4.05;;
58928;SDS011;44713;53.378;10.022;2023-06-22T04:01:35;6.03;;;4.43;;
58928;SDS011;44713;53.378;10.022;2023-06-22T04:04:01;5.32;;;4.82;;
58928;SDS011;44713;53.378;10.022;2023-06-22T04:06:27;6.28;;;4.63;;
58928;SDS011;44713;53.378;10.022;2023-06-22T04:08:52;4.70;;;4.30;;
58928;SDS011;44713;53.378;10.022;2023-06-22T04:11:17;4.90;;;4.22;;
58928;SDS011;44713;53.378;10.022;2023-06-22T04:13:43;5.75;;;5.22;;
58928;SDS011;44713;53.378;10.022;2023-06-22T04:16:09;6.57;;;5.85;;
58928;SDS011;44713;53.378;10.022;2023-06-22T04:18:34;6.28;;;5.68;;
58928;SDS011;44713;53.378;10.022;2023-06-22T04:20:59;6.53;;;5.22;;
58928;SDS011;44713;53.378;10.022;2023-06-22T04:23:25;5.82;;;5.32;;
58928;SDS011;44713;53.378;10.022;2023-06-22T04:25:50;5.15;;;4.65;;
58928;SDS011;44713;53.378;10.022;2023-06-22T04:28:16;5.63;;;4.72;;
58928;SDS011;44713;53.378;10.022;2023-06-22T04:30:42;7.57;;;5.35;;
58928;SDS011;44713;53.378;10.022;2023-06-22T04:33:12;5.88;;;5.35;;
58928;SDS011;44713;53.378;10.022;2023-06-22T04:35:38;7.05;;;5.45;;
58928;SDS011;44713;53.378;10.022;2023-06-22T04:38:06;6.50;;;5.57;;
58928;SDS011;44713;53.378;10.022;2023-06-22T04:40:32;6.45;;;5.40;;
58928;SDS011;44713;53.378;10.022;2023-06-22T04:42:57;8.55;;;6.40;;
58928;SDS011;44713;53.378;10.022;2023-06-22T04:45:27;6.45;;;5.85;;
58928;SDS011;44713;53.378;10.022;2023-06-22T04:47:53;6.82;;;5.80;;
58928;SDS011;44713;53.378;10.022;2023-06-22T04:50:18;8.63;;;5.40;;
58928;SDS011;44713;53.378;10.022;2023-06-22T04:52:46;5.10;;;4.55;;
58928;SDS011;44713;53.378;10.022;2023-06-22T04:55:12;6.05;;;5.50;;
58928;SDS011;44713;53.378;10.022;2023-06-22T04:57:37;6.38;;;4.60;;
58928;SDS011;44713;53.378;10.022;2023-06-22T05:00:04;6.63;;;5.85;;
58928;SDS011;44713;53.378;10.022;2023-06-22T05:02:39;7.10;;;5.30;;
58928;SDS011;44713;53.378;10.022;2023-06-22T05:05:05;6.15;;;5.50;;
58928;SDS011;44713;53.378;10.022;2023-06-22T05:07:35;5.70;;;5.10;;
58928;SDS011;44713;53.378;10.022;2023-06-22T05:10:01;6.68;;;5.93;;
58928;SDS011;44713;53.378;10.022;2023-06-22T05:12:28;8.77;;;6.57;;
58928;SDS011;44713;53.378;10.022;2023-06-22T05:14:54;6.28;;;5.68;;
58928;SDS011;44713;53.378;10.022;2023-06-22T05:17:19;6.13;;;5.53;;
58928;SDS011;44713;53.378;10.022;2023-06-22T05:19:45;7.15;;;5.18;;
58928;SDS011;44713;53.378;10.022;2023-06-22T05:22:14;8.35;;;5.72;;
58928;SDS011;44713;53.378;10.022;2023-06-22T05:24:40;8.85;;;6.07;;
58928;SDS011;44713;53.378;10.022;2023-06-22T05:27:05;7.20;;;5.82;;
58928;SDS011;44713;53.378;10.022;2023-06-22T05:29:31;10.77;;;5.60;;
58928;SDS011;44713;53.378;10.022;2023-06-22T05:31:56;10.25;;;6.43;;
58928;SDS011;44713;53.378;10.022;2023-06-22T05:34:21;7.70;;;5.93;;
58928;SDS011;44713;53.378;10.022;2023-06-22T05:36:47;8.57;;;6.63;;
58928;SDS011;44713;53.378;10.022;2023-06-22T05:39:12;7.88;;;5.93;;
58928;SDS011;44713;53.378;10.022;2023-06-22T05:41:39;10.57;;;6.40;;
58928;SDS011;44713;53.378;10.022;2023-06-22T05:44:05;7.20;;;6.50;;
58928;SDS011;44713;53.378;10.022;2023-06-22T05:46:30;8.23;;;6.40;;
58928;SDS011;44713;53.378;10.022;2023-06-22T05:48:55;9.52;;;6.18;;
58928;SDS011;44713;53.378;10.022;2023-06-22T05:51:21;10.05;;;7.00;;
58928;SDS011;44713;53.378;10.022;2023-06-22T05:53:46;8.55;;;6.03;;
58928;SDS011;44713;53.378;10.022;2023-06-22T05:56:15;9.40;;;6.30;;
58928;SDS011;44713;53.378;10.022;2023-06-22T05:58:41;8.25;;;6.43;;
58928;SDS011;44713;53.378;10.022;2023-06-22T06:01:06;13.80;;;7.28;;
58928;SDS011;44713;53.378;10.022;2023-06-22T06:03:32;8.00;;;6.38;;
58928;SDS011;44713;53.378;10.022;2023-06-22T06:05:57;9.80;;;6.60;;
58928;SDS011;44713;53.378;10.022;2023-06-22T06:08:23;12.40;;;6.25;;
58928;SDS011;44713;53.378;10.022;2023-06-22T06:10:48;6.38;;;5.72;;
58928;SDS011;44713;53.378;10.022;2023-06-22T06:13:13;11.13;;;5.90;;
58928;SDS011;44713;53.378;10.022;2023-06-22T06:15:39;9.45;;;5.75;;
58928;SDS011;44713;53.378;10.022;2023-06-22T06:18:04;8.10;;;5.57;;
58928;SDS011;44713;53.378;10.022;2023-06-22T06:20:31;7.82;;;5.32;;
58928;SDS011;44713;53.378;10.022;2023-06-22T06:22:57;8.73;;;5.85;;
58928;SDS011;44713;53.378;10.022;2023-06-22T06:25:22;7.82;;;4.55;;
58928;SDS011;44713;53.378;10.022;2023-06-22T06:27:49;7.38;;;5.30;;
58928;SDS011;44713;53.378;10.022;2023-06-22T06:30:16;7.65;;;4.60;;
58928;SDS011;44713;53.378;10.022;2023-06-22T06:32:43;5.00;;;4.10;;
58928;SDS011;44713;53.378;10.022;2023-06-22T06:38:21;6.20;;;5.25;;
58928;SDS011;44713;53.378;10.022;2023-06-22T06:40:46;5.70;;;4.60;;
58928;SDS011;44713;53.378;10.022;2023-06-22T06:43:14;6.78;;;4.90;;
58928;SDS011;44713;53.378;10.022;2023-06-22T06:45:39;9.02;;;4.97;;
58928;SDS011;44713;53.378;10.022;2023-06-22T06:48:04;9.85;;;4.85;;
58928;SDS011;44713;53.378;10.022;2023-06-22T06:50:30;8.25;;;4.68;;
58928;SDS011;44713;53.378;10.022;2023-06-22T06:52:55;7.95;;;4.78;;
58928;SDS011;44713;53.378;10.022;2023-06-22T06:55:21;5.93;;;5.00;;
58928;SDS011;44713;53.378;10.022;2023-06-22T06:57:49;7.68;;;5.03;;
58928;SDS011;44713;53.378;10.022;2023-06-22T07:00:15;6.88;;;4.90;;
58928;SDS011;44713;53.378;10.022;2023-06-22T07:02:41;9.82;;;5.15;;
58928;SDS011;44713;53.378;10.022;2023-06-22T07:05:08;5.80;;;5.00;;
58928;SDS011;44713;53.378;10.022;2023-06-22T07:07:34;8.80;;;5.13;;
58928;SDS011;44713;53.378;10.022;2023-06-22T07:10:00;4.97;;;4.47;;
58928;SDS011;44713;53.378;10.022;2023-06-22T07:12:25;6.60;;;4.63;;
58928;SDS011;44713;53.378;10.022;2023-06-22T07:14:56;7.80;;;4.30;;
58928;SDS011;44713;53.378;10.022;2023-06-22T07:17:26;7.80;;;4.32;;
58928;SDS011;44713;53.378;10.022;2023-06-22T07:19:52;7.85;;;3.38;;
58928;SDS011;44713;53.378;10.022;2023-06-22T07:22:17;5.35;;;3.80;;
58928;SDS011;44713;53.378;10.022;2023-06-22T07:24:42;5.85;;;3.80;;
58928;SDS011;44713;53.378;10.022;2023-06-22T07:27:07;7.75;;;3.80;;
58928;SDS011;44713;53.378;10.022;2023-06-22T07:29:36;6.05;;;3.90;;
58928;SDS011;44713;53.378;10.022;2023-06-22T07:32:01;6.65;;;4.05;;
58928;SDS011;44713;53.378;10.022;2023-06-22T07:34:29;5.50;;;4.10;;
58928;SDS011;44713;53.378;10.022;2023-06-22T07:36:55;6.93;;;4.13;;
58928;SDS011;44713;53.378;10.022;2023-06-22T07:39:20;6.78;;;4.22;;
58928;SDS011;44713;53.378;10.022;2023-06-22T07:41:50;6.88;;;3.75;;
58928;SDS011;44713;53.378;10.022;2023-06-22T07:44:16;5.63;;;5.03;;
58928;SDS011;44713;53.378;10.022;2023-06-22T07:46:42;6.85;;;3.85;;
58928;SDS011;44713;53.378;10.022;2023-06-22T07:49:07;4.15;;;3.63;;
58928;SDS011;44713;53.378;10.022;2023-06-22T07:51:33;5.75;;;4.10;;
58928;SDS011;44713;53.378;10.022;2023-06-22T07:53:59;5.00;;;3.78;;
58928;SDS011;44713;53.378;10.022;2023-06-22T07:56:24;5.03;;;3.78;;
58928;SDS011;44713;53.378;10.022;2023-06-22T07:58:50;7.30;;;3.42;;
58928;SDS011;44713;53.378;10.022;2023-06-22T08:01:15;5.90;;;3.42;;
58928;SDS011;44713;53.378;10.022;2023-06-22T08:03:41;7.80;;;3.25;;
58928;SDS011;44713;53.378;10.022;2023-06-22T08:06:07;5.82;;;3.60;;
58928;SDS011;44713;53.378;10.022;2023-06-22T08:08:34;8.02;;;4.07;;
58928;SDS011;44713;53.378;10.022;2023-06-22T08:11:00;5.32;;;3.38;;
58928;SDS011;44713;53.378;10.022;2023-06-22T08:13:25;4.90;;;3.40;;
58928;SDS011;44713;53.378;10.022;2023-06-22T08:15:50;6.15;;;3.50;;
58928;SDS011;44713;53.378;10.022;2023-06-22T08:18:16;3.97;;;2.88;;
58928;SDS011;44713;53.378;10.022;2023-06-22T08:20:41;4.90;;;3.40;;
58928;SDS011;44713;53.378;10.022;2023-06-22T08:23:07;3.40;;;3.00;;
58928;SDS011;44713;53.378;10.022;2023-06-22T08:25:33;4.78;;;2.88;;
58928;SDS011;44713;53.378;10.022;2023-06-22T08:27:59;3.97;;;2.95;;
58928;SDS011;44713;53.378;10.022;2023-06-22T08:30:25;4.82;;;2.80;;
58928;SDS011;44713;53.378;10.022;2023-06-22T08:32:50;6.32;;;3.38;;
58928;SDS011;44713;53.378;10.022;2023-06-22T08:35:16;6.75;;;3.10;;
58928;SDS011;44713;53.378;10.022;2023-06-22T08:37:41;4.30;;;2.95;;
58928;SDS011;44713;53.378;10.022;2023-06-22T08:40:07;4.50;;;2.80;;
58928;SDS011;44713;53.378;10.022;2023-06-22T08:42:37;4.20;;;2.90;;
58928;SDS011;44713;53.378;10.022;2023-06-22T08:45:03;5.57;;;3.40;;
58928;SDS011;44713;53.378;10.022;2023-06-22T08:47:29;5.95;;;3.83;;
58928;SDS011;44713;53.378;10.022;2023-06-22T08:49:55;3.47;;;2.70;;
58928;SDS011;44713;53.378;10.022;2023-06-22T08:52:20;6.70;;;3.50;;
58928;SDS011;44713;53.378;10.022;2023-06-22T08:54:46;4.35;;;3.05;;
58928;SDS011;44713;53.378;10.022;2023-06-22T08:57:11;5.07;;;3.30;;
58928;SDS011;44713;53.378;10.022;2023-06-22T08:59:37;7.10;;;3.05;;
58928;SDS011;44713;53.378;10.022;2023-06-22T09:02:02;5.93;;;3.15;;
58928;SDS011;44713;53.378;10.022;2023-06-22T09:04:28;5.78;;;3.50;;
58928;SDS011;44713;53.378;10.022;2023-06-22T09:06:53;4.32;;;3.35;;
58928;SDS011;44713;53.378;10.022;2023-06-22T09:09:18;4.20;;;3.70;;
58928;SDS011;44713;53.378;10.022;2023-06-22T09:11:44;5.07;;;3.13;;
58928;SDS011;44713;53.378;10.022;2023-06-22T09:14:12;8.00;;;3.33;;
58928;SDS011;44713;53.378;10.022;2023-06-22T09:16:37;6.63;;;3.67;;
58928;SDS011;44713;53.378;10.022;2023-06-22T09:19:03;9.23;;;4.50;;
58928;SDS011;44713;53.378;10.022;2023-06-22T09:21:28;5.05;;;3.42;;
58928;SDS011;44713;53.378;10.022;2023-06-22T09:23:54;5.00;;;3.40;;
58928;SDS011;44713;53.378;10.022;2023-06-22T09:26:19;4.72;;;3.03;;
58928;SDS011;44713;53.378;10.022;2023-06-22T09:28:46;4.85;;;2.90;;
58928;SDS011;44713;53.378;10.022;2023-06-22T09:31:12;3.17;;;2.50;;
58928;SDS011;44713;53.378;10.022;2023-06-22T09:33:37;6.10;;;3.33;;
58928;SDS011;44713;53.378;10.022;2023-06-22T09:36:04;6.15;;;3.60;;
58928;SDS011;44713;53.378;10.022;2023-06-22T09:38:34;3.67;;;2.78;;
58928;SDS011;44713;53.378;10.022;2023-06-22T09:41:02;4.63;;;3.10;;
58928;SDS011;44713;53.378;10.022;2023-06-22T09:43:28;4.97;;;2.70;;
58928;SDS011;44713;53.378;10.022;2023-06-22T09:45:54;6.18;;;3.28;;
58928;SDS011;44713;53.378;10.022;2023-06-22T09:48:20;4.25;;;3.22;;
58928;SDS011;44713;53.378;10.022;2023-06-22T09:50:45;5.82;;;3.65;;
58928;SDS011;44713;53.378;10.022;2023-06-22T09:53:10;3.30;;;2.35;;
58928;SDS011;44713;53.378;10.022;2023-06-22T09:55:36;4.90;;;2.65;;
58928;SDS011;44713;53.378;10.022;2023-06-22T09:58:01;3.85;;;2.92;;
58928;SDS011;44713;53.378;10.022;2023-06-22T10:00:26;4.05;;;3.00;;
58928;SDS011;44713;53.378;10.022;2023-06-22T10:02:52;5.70;;;2.80;;
58928;SDS011;44713;53.378;10.022;2023-06-22T10:05:17;4.43;;;2.67;;
58928;SDS011;44713;53.378;10.022;2023-06-22T10:07:43;5.18;;;3.25;;
58928;SDS011;44713;53.378;10.022;2023-06-22T10:10:12;5.93;;;3.40;;
58928;SDS011;44713;53.378;10.022;2023-06-22T10:12:56;3.63;;;3.00;;
58928;SDS011;44713;53.378;10.022;2023-06-22T10:15:22;6.03;;;3.58;;
58928;SDS011;44713;53.378;10.022;2023-06-22T10:17:48;3.47;;;2.97;;
58928;SDS011;44713;53.378;10.022;2023-06-22T10:20:14;4.47;;;2.60;;
58928;SDS011;44713;53.378;10.022;2023-06-22T10:22:40;7.68;;;3.05;;
58928;SDS011;44713;53.378;10.022;2023-06-22T10:25:06;3.78;;;3.20;;
58928;SDS011;44713;53.378;10.022;2023-06-22T10:27:33;6.40;;;2.80;;
58928;SDS011;44713;53.378;10.022;2023-06-22T10:29:58;4.10;;;2.70;;
58928;SDS011;44713;53.378;10.022;2023-06-22T10:32:24;3.63;;;3.13;;
58928;SDS011;44713;53.378;10.022;2023-06-22T10:34:49;5.70;;;3.00;;
58928;SDS011;44713;53.378;10.022;2023-06-22T10:37:14;3.88;;;2.85;;
58928;SDS011;44713;53.378;10.022;2023-06-22T10:39:39;3.88;;;3.20;;
58928;SDS011;44713;53.378;10.022;2023-06-22T10:42:05;7.53;;;3.75;;
58928;SDS011;44713;53.378;10.022;2023-06-22T10:44:30;3.97;;;2.80;;
58928;SDS011;44713;53.378;10.022;2023-06-22T10:46:56;4.38;;;3.53;;
58928;SDS011;44713;53.378;10.022;2023-06-22T10:49:21;4.85;;;3.05;;
58928;SDS011;44713;53.378;10.022;2023-06-22T10:51:46;4.10;;;3.70;;
58928;SDS011;44713;53.378;10.022;2023-06-22T10:54:12;6.45;;;3.10;;
58928;SDS011;44713;53.378;10.022;2023-06-22T10:56:39;4.68;;;2.88;;
58928;SDS011;44713;53.378;10.022;2023-06-22T10:59:05;3.50;;;3.17;;
58928;SDS011;44713;53.378;10.022;2023-06-22T11:01:30;4.47;;;3.30;;
58928;SDS011;44713;53.378;10.022;2023-06-22T11:03:56;4.32;;;3.30;;
58928;SDS011;44713;53.378;10.022;2023-06-22T11:06:22;4.18;;;3.55;;
58928;SDS011;44713;53.378;10.022;2023-06-22T11:08:47;4.63;;;3.25;;
58928;SDS011;44713;53.378;10.022;2023-06-22T11:11:13;4.13;;;3.60;;
58928;SDS011;44713;53.378;10.022;2023-06-22T11:13:38;5.20;;;3.33;;
58928;SDS011;44713;53.378;10.022;2023-06-22T11:16:04;4.20;;;3.80;;
58928;SDS011;44713;53.378;10.022;2023-06-22T11:18:30;5.32;;;3.60;;
58928;SDS011;44713;53.378;10.022;2023-06-22T11:20:56;5.22;;;3.08;;
58928;SDS011;44713;53.378;10.022;2023-06-22T11:23:21;5.68;;;3.30;;
58928;SDS011;44713;53.378;10.022;2023-06-22T11:25:46;4.07;;;3.00;;
58928;SDS011;44713;53.378;10.022;2023-06-22T11:28:12;4.90;;;3.70;;
58928;SDS011;44713;53.378;10.022;2023-06-22T11:30:38;3.50;;;3.20;;
58928;SDS011;44713;53.378;10.022;2023-06-22T11:33:03;5.43;;;4.00;;
58928;SDS011;44713;53.378;10.022;2023-06-22T11:35:28;3.92;;;3.08;;
58928;SDS011;44713;53.378;10.022;2023-06-22T11:37:54;6.65;;;3.92;;
58928;SDS011;44713;53.378;10.022;2023-06-22T11:40:21;3.92;;;3.50;;
58928;SDS011;44713;53.378;10.022;2023-06-22T11:42:47;5.93;;;3.33;;
58928;SDS011;44713;53.378;10.022;2023-06-22T11:45:13;5.95;;;3.75;;
58928;SDS011;44713;53.378;10.022;2023-06-22T11:47:38;4.45;;;3.97;;
58928;SDS011;44713;53.378;10.022;2023-06-22T11:50:04;4.80;;;3.20;;
58928;SDS011;44713;53.378;10.022;2023-06-22T11:52:30;7.55;;;3.47;;
58928;SDS011;44713;53.378;10.022;2023-06-22T11:54:56;4.00;;;3.60;;
58928;SDS011;44713;53.378;10.022;2023-06-22T11:57:21;4.20;;;3.35;;
58928;SDS011;44713;53.378;10.022;2023-06-22T11:59:46;4.30;;;3.90;;
58928;SDS011;44713;53.378;10.022;2023-06-22T12:02:12;4.45;;;4.05;;
58928;SDS011;44713;53.378;10.022;2023-06-22T12:04:37;4.68;;;4.28;;
58928;SDS011;44713;53.378;10.022;2023-06-22T12:07:03;4.20;;;3.80;;
58928;SDS011;44713;53.378;10.022;2023-06-22T12:09:28;7.05;;;3.83;;
58928;SDS011;44713;53.378;10.022;2023-06-22T12:11:53;3.75;;;3.45;;
58928;SDS011;44713;53.378;10.022;2023-06-22T12:14:19;4.57;;;3.55;;
58928;SDS011;44713;53.378;10.022;2023-06-22T12:16:44;4.30;;;3.90;;
58928;SDS011;44713;53.378;10.022;2023-06-22T12:19:10;5.25;;;4.03;;
58928;SDS011;44713;53.378;10.022;2023-06-22T12:21:37;3.95;;;3.50;;
58928;SDS011;44713;53.378;10.022;2023-06-22T12:24:02;5.25;;;3.50;;
58928;SDS011;44713;53.378;10.022;2023-06-22T12:26:28;4.75;;;3.70;;
58928;SDS011;44713;53.378;10.022;2023-06-22T12:28:53;3.92;;;3.50;;
58928;SDS011;44713;53.378;10.022;2023-06-22T12:31:18;4.47;;;3.80;;
58928;SDS011;44713;53.378;10.022;2023-06-22T12:33:44;7.75;;;4.03;;
58928;SDS011;44713;53.378;10.022;2023-06-22T12:36:09;4.15;;;3.85;;
58928;SDS011;44713;53.378;10.022;2023-06-22T12:38:35;3.88;;;3.47;;
58928;SDS011;44713;53.378;10.022;2023-06-22T12:41:00;5.07;;;4.05;;
58928;SDS011;44713;53.378;10.022;2023-06-22T12:43:25;4.50;;;4.10;;
58928;SDS011;44713;53.378;10.022;2023-06-22T12:45:51;6.13;;;4.78;;
58928;SDS011;44713;53.378;10.022;2023-06-22T12:48:16;5.57;;;4.63;;
58928;SDS011;44713;53.378;10.022;2023-06-22T12:50:42;4.03;;;3.70;;
58928;SDS011;44713;53.378;10.022;2023-06-22T12:53:07;4.70;;;4.22;;
58928;SDS011;44713;53.378;10.022;2023-06-22T12:55:32;4.25;;;3.85;;
58928;SDS011;44713;53.378;10.022;2023-06-22T12:57:58;5.05;;;4.20;;
58928;SDS011;44713;53.378;10.022;2023-06-22T13:00:23;6.70;;;4.60;;
58928;SDS011;44713;53.378;10.022;2023-06-22T13:02:49;4.20;;;3.85;;
58928;SDS011;44713;53.378;10.022;2023-06-22T13:05:14;4.75;;;4.03;;
58928;SDS011;44713;53.378;10.022;2023-06-22T13:07:40;4.45;;;3.80;;
58928;SDS011;44713;53.378;10.022;2023-06-22T13:10:07;4.50;;;4.10;;
58928;SDS011;44713;53.378;10.022;2023-06-22T13:12:32;4.60;;;4.20;;
58928;SDS011;44713;53.378;10.022;2023-06-22T13:14:57;5.72;;;4.32;;
58928;SDS011;44713;53.378;10.022;2023-06-22T13:17:23;5.28;;;4.60;;
58928;SDS011;44713;53.378;10.022;2023-06-22T13:19:48;4.53;;;4.13;;
58928;SDS011;44713;53.378;10.022;2023-06-22T13:25:09;4.85;;;4.43;;
58928;SDS011;44713;53.378;10.022;2023-06-22T13:27:41;5.47;;;4.90;;
58928;SDS011;44713;53.378;10.022;2023-06-22T13:30:07;4.40;;;3.97;;
58928;SDS011;44713;53.378;10.022;2023-06-22T13:32:33;5.30;;;4.35;;
58928;SDS011;44713;53.378;10.022;2023-06-22T13:34:59;5.05;;;4.47;;
58928;SDS011;44713;53.378;10.022;2023-06-22T13:37:25;4.72;;;4.32;;
58928;SDS011;44713;53.378;10.022;2023-06-22T13:39:50;5.35;;;4.00;;
58928;SDS011;44713;53.378;10.022;2023-06-22T13:42:16;6.93;;;4.15;;
58928;SDS011;44713;53.378;10.022;2023-06-22T13:44:41;5.13;;;4.63;;
58928;SDS011;44713;53.378;10.022;2023-06-22T13:47:07;5.03;;;4.15;;
58928;SDS011;44713;53.378;10.022;2023-06-22T13:49:32;5.28;;;4.78;;
58928;SDS011;44713;53.378;10.022;2023-06-22T13:51:57;7.25;;;5.10;;
58928;SDS011;44713;53.378;10.022;2023-06-22T13:54:23;4.95;;;4.32;;
58928;SDS011;44713;53.378;10.022;2023-06-22T13:56:48;4.70;;;4.25;;
58928;SDS011;44713;53.378;10.022;2023-06-22T13:59:14;4.88;;;4.47;;
58928;SDS011;44713;53.378;10.022;2023-06-22T14:01:39;6.38;;;4.68;;
58928;SDS011;44713;53.378;10.022;2023-06-22T14:04:06;5.68;;;4.20;;
58928;SDS011;44713;53.378;10.022;2023-06-22T14:06:31;6.10;;;4.35;;
58928;SDS011;44713;53.378;10.022;2023-06-22T14:08:56;4.43;;;4.03;;
58928;SDS011;44713;53.378;10.022;2023-06-22T14:11:22;4.82;;;4.32;;
58928;SDS011;44713;53.378;10.022;2023-06-22T14:13:47;5.05;;;4.50;;
58928;SDS011;44713;53.378;10.022;2023-06-22T14:16:12;4.45;;;4.05;;
58928;SDS011;44713;53.378;10.022;2023-06-22T14:18:38;4.57;;;4.20;;
58928;SDS011;44713;53.378;10.022;2023-06-22T14:21:03;4.85;;;4.45;;
58928;SDS011;44713;53.378;10.022;2023-06-22T14:23:29;5.70;;;4.30;;
58928;SDS011;44713;53.378;10.022;2023-06-22T14:25:54;7.05;;;4.53;;
58928;SDS011;44713;53.378;10.022;2023-06-22T14:28:19;5.65;;;4.57;;
58928;SDS011;44713;53.378;10.022;2023-06-22T14:30:45;5.43;;;4.72;;
58928;SDS011;44713;53.378;10.022;2023-06-22T14:33:10;5.40;;;4.38;;
58928;SDS011;44713;53.378;10.022;2023-06-22T14:35:37;4.78;;;4.38;;
58928;SDS011;44713;53.378;10.022;2023-06-22T14:38:02;5.03;;;4.60;;
58928;SDS011;44713;53.378;10.022;2023-06-22T14:40:27;4.78;;;4.25;;
58928;SDS011;44713;53.378;10.022;2023-06-22T14:42:53;9.82;;;4.50;;